Latest Weather Observations for Casey*

IDT60801

Issued at 10:31 pm EST Saturday 29 August 2015 (issued every 30 minutes, with the page automatically refreshed every 10 minutes)

About weather observations | Map of weather stations | Latest weather observations for ANT | Other Formats
Station Details ID: 300017 Name: CASEY Lat: -66.28 Lon: 110.52 Height: 40.0 m
Data from the previous 72 hours. | See also: Recent months at Casey*
Date/Time
EST
Temp
°C
App
Temp
°C
Dew
Point
Rel
Hum
%
Delta-T
°C
Wind Press
QNH
hPa
Press
MSL
hPa
Rain
since 9 am
mm
Dir
 
Spd
km/h
Gust
km/h
Spd
kts
Gust
kts
29/10:30pm -4.0 -23.9 -5.0 93 - E 91 104 49 56 971.7 - -
29/10:00pm -3.9 -24.5 -4.7 94 - E 95 109 51 59 972.2 972.7 -
29/09:30pm -4.3 -24.2 -5.3 93 - E 91 107 49 58 972.9 - -
29/09:24pm -4.0 -23.5 -5.0 93 - E 89 107 48 58 972.9 - -
29/09:00pm -4.0 -23.9 -5.0 93 - E 91 102 49 55 973.6 - -
29/08:30pm -4.4 -25.1 -5.2 94 - E 95 111 51 60 973.5 - -
29/08:00pm -5.3 -27.0 -6.2 93 - E 100 115 54 62 973.4 - -
29/07:30pm -5.7 -28.2 -6.6 93 - E 104 117 56 63 973.3 - -
29/07:00pm -5.6 -28.1 -6.5 93 - E 104 117 56 63 973.8 974.3 -
29/06:30pm -5.6 -28.5 -6.5 93 - E 106 122 57 66 973.9 - -
29/06:04pm -5.5 -27.2 -6.4 93 - E 100 119 54 64 975.3 - -
29/06:00pm -5.5 -26.9 -6.4 93 - E 98 111 53 60 975.4 - -
29/05:30pm -5.0 -26.7 -6.0 93 - E 100 115 54 62 975.7 - -
29/05:00pm -3.8 -24.6 -4.6 94 - E 96 111 52 60 976.4 - -
29/04:44pm -3.5 -22.9 -4.3 94 - E 89 107 48 58 976.4 - -
29/04:30pm -3.3 -21.6 -4.1 94 - E 83 98 45 53 977.0 - -
29/04:10pm -2.9 -20.2 -3.7 94 - E 78 96 42 52 978.0 - -
29/04:00pm -3.3 -19.1 -4.3 93 - E 70 87 38 47 978.7 979.3 -
29/03:30pm -2.6 -20.2 -3.4 94 - ENE 80 91 43 49 979.6 - -
29/03:14pm -1.7 -18.5 -2.5 94 - ENE 76 96 41 52 979.9 - -
29/03:00pm -1.4 -16.8 -2.1 95 - ENE 69 83 37 45 980.6 - -
29/02:30pm -1.7 -18.8 -2.4 95 - ENE 78 89 42 48 980.6 - -
29/02:18pm -1.3 -19.3 -2.0 95 - ENE 83 89 45 48 980.5 - -
29/02:08pm -1.7 -16.0 -2.4 95 - NE 63 82 34 44 981.2 - -
29/02:00pm -2.1 -16.8 -2.8 95 - NE 65 76 35 41 981.4 - -
29/01:47pm -2.3 -17.4 -3.0 95 - NE 67 78 36 42 981.6 - -
29/01:30pm -2.3 -21.2 -3.0 95 - ENE 87 95 47 51 980.8 - -
29/01:29pm -2.2 -21.1 -2.9 95 - ENE 87 95 47 51 980.9 - -
29/01:14pm -2.0 -17.1 -2.7 95 - NE 67 91 36 49 981.7 - -
29/01:00pm -2.2 -18.3 -2.9 95 - ENE 72 87 39 47 982.1 982.7 -
29/12:45pm -2.5 -19.0 -3.3 94 - ENE 74 95 40 51 981.9 - -
29/12:30pm -2.7 -19.2 -3.5 94 - ENE 74 87 40 47 982.1 - -
29/12:00pm -3.0 -19.2 -3.8 94 - ENE 72 83 39 45 982.4 - -
29/11:30am -3.1 -18.9 -3.9 94 - ENE 70 83 38 45 982.7 - -
29/11:05am -3.2 -18.4 -4.0 94 - ENE 67 87 36 47 982.9 - -
29/11:00am -2.9 -18.1 -3.7 94 - ENE 67 80 36 43 982.8 - -
29/10:30am -3.1 -17.9 -3.9 94 - ENE 65 78 35 42 982.8 - -
29/10:00am -3.7 -19.4 -4.5 94 - ENE 69 85 37 46 982.6 983.2 -
29/09:59am -3.7 -19.0 -4.5 94 - ENE 67 85 36 46 982.5 - -
29/09:30am -3.6 -18.1 -4.4 94 - ENE 63 72 34 39 982.9 - -
29/09:00am -3.5 -18.0 -4.3 94 - ENE 63 78 34 42 983.2 - -
29/08:30am -4.3 -18.5 -5.3 93 - ENE 61 72 33 39 983.3 - -
29/08:00am -4.7 -18.6 -5.7 93 - ENE 59 70 32 38 983.6 - -
29/07:30am -5.0 -18.5 -6.0 93 - ENE 57 69 31 37 983.8 - -
29/07:00am -6.0 -20.0 -7.1 92 - E 59 78 32 42 983.9 984.4 -
29/06:53am -6.1 -20.1 -7.2 92 - ENE 59 78 32 42 983.9 - -
29/06:30am -6.7 -20.4 -7.9 91 - ENE 57 70 31 38 984.2 - -
29/06:18am -6.7 -18.7 -7.8 92 - ENE 48 57 26 31 985.4 - -
29/06:00am -7.1 -13.6 -8.2 92 - E 19 39 10 21 985.8 - -
29/05:30am -7.1 -12.9 -8.3 91 - SSE 15 30 8 16 986.0 - -
29/05:26am -6.5 -13.9 -7.7 91 - E 24 39 13 21 986.0 - -
29/05:06am -7.2 -20.8 -8.3 92 - E 56 74 30 40 985.2 - -
29/05:00am -7.9 -20.8 -9.1 91 - E 52 69 28 37 985.7 - -
29/04:58am -7.7 -20.5 -8.9 91 - E 52 69 28 37 985.8 - -
29/04:32am -7.1 -15.3 -8.2 92 - ENE 28 46 15 25 986.3 - -
29/04:30am -7.1 -16.1 -8.2 92 - ENE 32 46 17 25 986.2 - -
29/04:19am -7.6 -15.1 -8.7 92 - SSW 24 39 13 21 986.7 - -
29/04:00am -8.2 -19.6 -9.4 91 - E 44 74 24 40 987.0 987.5 -
29/03:53am -8.4 -18.8 -9.6 91 - E 39 57 21 31 987.4 - -
29/03:52am -8.6 -19.8 -9.8 91 - E 43 57 23 31 987.1 - -
29/03:36am -8.4 -16.8 -9.7 90 - SE 28 48 15 26 987.6 - -
29/03:30am -8.1 -13.2 -9.3 91 - S 11 22 6 12 987.7 - -
29/03:21am -8.0 -15.5 -9.1 92 - N 24 37 13 20 987.5 - -
29/03:00am -8.7 -22.6 -10.0 90 - E 57 82 31 44 986.2 - -
29/02:53am -8.2 -22.0 -9.4 91 - E 57 80 31 43 986.8 - -
29/02:51am -8.6 -24.4 -9.9 90 - E 67 80 36 43 986.9 - -
29/02:49am -8.1 -18.5 -9.3 91 - E 39 61 21 33 987.6 - -
29/02:40am -7.6 -16.2 -8.5 93 - NE 30 50 16 27 987.7 - -
29/02:39am -7.8 -17.4 -8.7 93 - ENE 35 50 19 27 987.6 - -
29/02:34am -8.4 -23.0 -9.6 91 - E 61 80 33 43 987.0 - -
29/02:30am -9.2 -24.3 -10.5 90 - E 63 80 34 43 986.4 - -
29/02:00am -7.8 -23.9 -8.7 93 - E 69 89 37 48 986.6 - -
29/01:59am -8.6 -24.7 -9.8 91 - E 69 89 37 48 986.2 - -
29/01:54am -8.9 -25.1 -10.2 90 - E 69 74 37 40 986.6 - -
29/01:30am -7.9 -19.2 -9.0 92 - E 44 100 24 54 988.2 - -
29/01:26am -8.3 -20.1 -9.5 91 - E 46 100 25 54 988.0 - -
29/01:15am -8.5 -17.2 -9.8 90 - E 30 57 16 31 988.3 - -
29/01:00am -7.3 -11.9 -8.4 92 - NW 9 15 5 8 989.1 989.6 -
29/12:38am -7.3 -16.9 -8.4 92 - E 35 54 19 29 989.0 - -
29/12:36am -7.3 -23.0 -8.4 92 - E 67 98 36 53 989.0 - -
29/12:30am -7.0 -23.6 -8.1 92 - E 72 104 39 56 986.8 - -
29/12:00am -8.2 -26.8 -9.4 91 - E 82 100 44 54 986.2 - -
 
Date/Time
EST
Temp
°C
App
Temp
°C
Dew
Point
Rel
Hum
%
Delta-T
°C
Wind Press
QNH
hPa
Press
MSL
hPa
Rain
since 9 am
mm
Dir
 
Spd
km/h
Gust
km/h
Spd
kts
Gust
kts
28/11:30pm -7.4 -24.8 -8.5 92 - E 76 104 41 56 987.0 - -
28/11:29pm -7.3 -24.3 -8.2 93 - E 74 93 40 50 987.2 - -
28/11:16pm -7.5 -24.9 -8.7 91 - E 76 89 41 48 987.5 - -
28/11:00pm -6.4 -19.5 -7.6 91 - E 54 80 29 43 988.8 - -
28/10:55pm -6.4 -19.5 -7.5 92 - E 54 80 29 43 988.8 - -
28/10:53pm -5.8 -17.3 -6.6 94 - E 46 63 25 34 988.9 - -
28/10:31pm -6.9 -22.9 -7.8 93 - E 69 89 37 48 988.5 - -
28/10:30pm -7.3 -23.3 -8.5 91 - E 69 85 37 46 988.8 - -
28/10:15pm -7.3 -23.3 -8.4 92 - E 69 87 37 47 988.6 - -
28/10:08pm -7.1 -19.1 -8.2 92 - E 48 74 26 40 990.1 - -
28/10:06pm -7.1 -19.1 -8.2 92 - E 48 61 26 33 989.8 - -
28/10:00pm -7.3 -15.2 -8.2 93 - SSE 26 52 14 28 990.4 990.9 -
28/09:39pm -7.7 -16.0 -8.8 92 - ESE 28 52 15 28 990.3 - -
28/09:30pm -8.5 -14.0 -9.7 91 - SSW 13 19 7 10 990.7 - -
28/09:00pm -9.7 -17.8 -11.0 90 - S 26 35 14 19 990.7 - -
28/08:30pm -10.8 -18.9 -12.2 89 - SSW 26 30 14 16 991.2 - -
28/08:00pm -6.7 -12.4 -7.4 95 - ESE 15 22 8 12 991.2 - -
28/07:30pm -10.0 -17.7 -11.3 90 - S 24 28 13 15 991.2 - -
28/07:00pm -9.8 -16.2 -11.1 90 - SSW 17 20 9 11 991.5 992.0 -
28/06:30pm -10.5 -17.3 -12.0 89 - SSW 19 24 10 13 991.7 - -
28/06:00pm -11.0 -18.0 -12.4 89 - SSW 20 26 11 14 991.4 - -
28/05:30pm -12.0 -18.9 -13.7 87 - SW 19 28 10 15 991.1 - -
28/05:00pm -9.6 -16.3 -10.9 90 - SSW 19 22 10 12 991.0 - -
28/04:30pm -10.3 -17.1 -11.8 89 - SSW 19 22 10 12 991.1 - -
28/04:00pm -11.3 -17.4 -12.7 89 - S 15 22 8 12 991.5 992.0 -
28/03:30pm -12.5 -20.0 -14.2 87 - S 22 28 12 15 991.5 - -
28/03:00pm -12.9 -20.4 -14.6 87 - SSW 22 30 12 16 991.0 - -
28/02:30pm -12.0 -19.5 -13.6 88 - SSW 22 33 12 18 991.1 - -
28/02:00pm -10.7 -17.7 -11.9 91 - SSE 20 26 11 14 990.9 - -
28/01:57pm -11.3 -21.9 -12.7 89 - SSW 39 46 21 25 989.9 - -
28/01:52pm -10.9 -19.4 -12.3 89 - S 28 37 15 20 990.4 - -
28/01:30pm -10.9 -15.8 -12.2 90 - SE 9 11 5 6 990.6 - -
28/01:00pm -9.4 -18.6 -10.7 90 - E 32 52 17 28 989.9 990.4 -
28/12:55pm -9.2 -17.6 -10.4 91 - E 28 48 15 26 990.1 - -
28/12:53pm -9.2 -18.6 -10.5 90 - E 33 48 18 26 989.9 - -
28/12:49pm -9.2 -24.3 -10.5 90 - E 63 82 34 44 988.9 - -
28/12:30pm -9.3 -25.7 -10.5 91 - E 70 87 38 47 987.4 - -
28/12:00pm -9.7 -26.1 -11.0 90 - E 70 82 38 44 987.3 - -
28/11:30am -10.0 -27.2 -11.5 89 - E 74 85 40 46 987.0 - -
28/11:00am -9.3 -25.1 -10.6 90 - ENE 67 83 36 45 987.0 - -
28/10:44am -9.4 -23.3 -10.7 90 - ENE 57 78 31 42 987.1 - -
28/10:42am -9.3 -21.9 -10.5 91 - ENE 50 63 27 34 987.9 - -
28/10:40am -9.9 -19.3 -11.4 89 - NE 33 52 18 28 988.3 - -
28/10:38am -10.8 -20.3 -13.1 83 - NE 33 44 18 24 988.0 - -
28/10:30am -11.6 -18.5 -13.6 85 - S 19 26 10 14 988.1 - -
28/10:00am -9.9 -15.5 -11.4 89 - SSW 13 20 7 11 988.0 988.5 -
28/09:30am -11.0 -18.0 -12.7 87 - WSW 20 33 11 18 987.8 - -
28/09:00am -14.4 -21.4 -16.4 85 - SW 19 30 10 16 987.8 - -
28/08:30am -14.6 -20.5 -16.4 86 - S 13 15 7 8 987.5 - -
28/08:00am -15.9 -21.9 -17.8 85 - SSE 13 15 7 8 987.6 - -
28/07:30am -16.7 -21.9 -18.6 85 - SSE 9 11 5 6 987.4 - -
28/07:00am -17.7 -25.5 -19.7 84 - SSW 22 24 12 13 986.5 987.0 -
28/06:30am -16.9 -23.7 -19.1 83 - S 17 22 9 12 985.9 - -
28/06:00am -17.1 -25.2 -19.1 84 - S 24 28 13 15 985.8 - -
28/05:30am -18.0 -25.8 -20.3 82 - S 22 26 12 14 985.9 - -
28/05:00am -18.9 -26.3 -21.8 78 - SSE 20 24 11 13 985.8 - -
28/04:30am -18.0 -25.4 -21.0 77 - SSE 20 24 11 13 985.8 - -
28/04:00am -17.7 -25.5 -22.5 66 - SSE 22 24 12 13 986.3 986.8 -
28/03:30am -18.2 -26.0 -22.6 68 - SSE 22 26 12 14 986.4 - -
28/03:00am -18.9 -25.8 -23.1 69 - S 17 20 9 11 986.3 - -
28/02:30am -18.8 -24.2 -22.9 70 - S 9 13 5 7 985.8 - -
28/02:00am -19.2 -25.3 -22.9 72 - S 13 13 7 7 985.5 - -
28/01:30am -17.1 -22.1 -22.1 65 - ENE 7 11 4 6 985.9 - -
28/01:00am -17.6 -23.0 -22.4 66 - NE 9 11 5 6 985.9 986.4 -
28/12:30am -18.5 -25.0 -23.1 67 - NE 15 17 8 9 985.6 - -
28/12:00am -19.7 -28.0 -23.9 69 - ENE 24 28 13 15 985.5 - -
 
Date/Time
EST
Temp
°C
App
Temp
°C
Dew
Point
Rel
Hum
%
Delta-T
°C
Wind Press
QNH
hPa
Press
MSL
hPa
Rain
since 9 am
mm
Dir
 
Spd
km/h
Gust
km/h
Spd
kts
Gust
kts
27/11:30pm -20.6 -28.5 -24.5 71 - E 22 26 12 14 985.0 - -
27/11:00pm -21.7 -29.2 -25.1 74 - WSW 20 22 11 12 984.1 - -
27/10:30pm -21.8 -29.1 -25.0 75 - WSW 19 20 10 11 983.9 - -
27/10:00pm -19.2 -26.5 -21.9 79 - WSW 19 20 10 11 983.2 983.8 -
27/09:30pm -19.1 -24.8 -21.7 80 - WSW 11 15 6 8 983.2 - -
27/09:00pm -19.2 -24.9 -21.6 81 - WSW 11 13 6 7 982.8 - -
27/08:30pm -19.9 -25.7 -22.3 81 - WSW 11 13 6 7 982.3 - -
27/08:00pm -21.4 -28.0 -23.8 81 - WSW 15 17 8 9 982.0 - -
27/07:30pm -18.9 -24.6 -21.2 82 - WSW 11 13 6 7 981.3 - -
27/07:00pm -20.0 -26.1 -22.3 82 - WSW 13 17 7 9 981.0 981.6 -
27/06:30pm -19.7 -26.2 -22.0 82 - WSW 15 17 8 9 980.8 - -
27/06:00pm -18.7 -25.2 -21.0 82 - WSW 15 19 8 10 980.3 - -
27/05:30pm -18.5 -24.6 -20.7 83 - WSW 13 17 7 9 980.1 - -
27/05:00pm -18.7 -24.4 -21.0 82 - WSW 11 15 6 8 979.6 - -
27/04:30pm -18.8 -24.9 -21.1 82 - WSW 13 15 7 8 979.3 - -
27/04:00pm -18.4 -24.9 -20.7 82 - WSW 15 17 8 9 979.0 979.6 -
27/03:30pm -18.7 -24.4 -21.0 82 - WSW 11 13 6 7 978.4 - -
27/03:00pm -19.1 -25.2 -21.5 81 - WSW 13 15 7 8 978.0 - -
27/02:30pm -19.2 -24.9 -21.5 82 - WSW 11 13 6 7 977.5 - -
27/02:00pm -18.8 -25.3 -21.1 82 - WSW 15 17 8 9 977.1 - -
27/01:30pm -18.9 -25.4 -21.2 82 - W 15 17 8 9 976.4 - -
27/01:00pm -18.5 -24.2 -20.7 83 - W 11 13 6 7 976.1 976.6 -
27/12:30pm -18.1 -22.8 -20.4 82 - NW 6 7 3 4 975.4 - -
27/12:00pm -18.4 -23.7 -20.6 83 - ENE 9 13 5 7 975.0 - -
27/11:30am -19.5 -23.9 -21.8 82 - SW 4 9 2 5 974.6 - -
27/11:00am -19.7 -26.2 -22.0 82 - S 15 17 8 9 974.0 - -
27/10:30am -20.3 -27.8 -23.0 79 - SSW 20 24 11 13 973.1 - -
27/10:00am -20.3 -28.6 -24.2 71 - S 24 30 13 16 973.2 973.7 -
27/09:30am -22.0 -31.1 -26.8 65 - S 28 35 15 19 973.8 - -
27/09:00am -22.5 -30.8 -27.2 65 - S 24 28 13 15 974.9 - -
27/08:30am -21.6 -30.3 -26.6 64 - SSE 26 35 14 19 975.3 - -
27/08:00am -23.6 -32.7 -27.2 72 - SSE 28 30 15 16 975.9 - -
27/07:30am -24.3 -32.7 -27.7 73 - S 24 32 13 17 977.2 - -
27/07:00am -24.0 -32.0 -27.4 73 - S 22 24 12 13 977.8 978.3 -
27/06:30am -24.9 -32.5 -28.2 74 - S 20 22 11 12 979.0 - -
27/06:00am -25.2 -32.8 -28.6 73 - SSE 20 24 11 13 979.8 - -
27/05:30am -24.9 -33.3 -28.5 72 - SSE 24 32 13 17 980.9 - -
27/05:00am -24.6 -32.2 -28.0 73 - SSE 20 24 11 13 981.8 - -
27/04:30am -24.9 -32.5 -28.6 71 - SSE 20 26 11 14 982.8 - -
27/04:00am -24.1 -32.1 -28.1 69 - S 22 24 12 13 983.1 983.7 -
27/03:30am -22.7 -29.4 -31.8 43 - N 15 24 8 13 984.0 - -
27/03:00am -21.9 -29.3 -29.3 51 - NNE 19 26 10 14 985.0 - -
27/02:30am -21.5 -29.1 -28.9 51 - NNE 20 28 11 15 985.3 - -
27/02:00am -22.1 -31.9 -25.9 71 - ENE 32 35 17 19 985.5 - -
27/01:30am -22.2 -31.7 -26.0 71 - E 30 33 16 18 985.8 - -
27/01:00am -21.9 -31.7 -25.6 72 - ENE 32 37 17 20 985.5 986.0 -

Other Formats:

Comma delimited format used in spreadsheet applications
http://www.bom.gov.au/fwo/IDT60803/IDT60803.89611.axf

JavaScript Object Notation format (JSON) in row-major order
http://www.bom.gov.au/fwo/IDT60803/IDT60803.89611.json